Time;durP1;ratioP1;P1;durP2;ratioP2;P2;SDS_P1;SDS_P2;PMS_P1;PMS_P2;Temp;Humidity;BMP_temperature;BMP_pressure;BME280_temperature;BME280_humidity;BME280_pressure;Samples;Min_cycle;Max_cycle;Signal;HPM_P1;HPM_P2
2022/01/13 00:01:24;;;;;;;;;;;4.60;99.90;;;;;;4996004;28;19921;-74
2022/01/13 00:03:49;;;;;;;;;;;4.60;99.90;;;;;;4976789;28;19968;-74
2022/01/13 00:06:15;;;;;;;;;;;4.60;99.90;;;;;;4976241;28;19969;-75
2022/01/13 00:08:40;;;;;;;;;;;4.60;99.90;;;;;;4988475;28;19964;-74
2022/01/13 00:11:06;;;;;;;;;;;4.60;99.90;;;;;;5013487;28;20413;-75
2022/01/13 00:13:45;;;;;;;;;;;4.70;99.90;;;;;;4995541;28;19975;-75
2022/01/13 00:18:50;;;;;;;;;;;4.70;99.90;;;;;;4992502;28;19976;-74
2022/01/13 00:21:31;;;;;;;;;;;4.60;99.90;;;;;;4976441;28;20353;-74
2022/01/13 00:24:01;;;;;;;;;;;4.60;99.90;;;;;;4976265;28;20326;-75
2022/01/13 00:26:28;;;;;;;;;;;4.60;99.90;;;;;;4972104;28;20362;-75
2022/01/13 00:28:55;;;;;;;;;;;4.60;99.90;;;;;;4985421;28;19930;-75
2022/01/13 00:31:27;;;;;;;;;;;4.60;99.90;;;;;;4956990;28;19958;-74
2022/01/13 00:33:54;;;;;;;;;;;4.60;99.90;;;;;;4972644;28;19933;-75
2022/01/13 00:36:30;;;;;;;;;;;4.70;99.90;;;;;;4957530;28;19953;-75
2022/01/13 00:38:57;;;;;;;;;;;4.60;99.90;;;;;;4980818;28;20341;-76
2022/01/13 00:41:27;;;;;;;;;;;4.70;99.90;;;;;;4968670;28;19922;-76
2022/01/13 00:43:53;;;;;;;;;;;4.70;99.90;;;;;;4972573;28;20402;-76
2022/01/13 00:46:22;;;;;;;;;;;4.60;99.90;;;;;;4957049;28;19930;-76
2022/01/13 00:48:48;;;;;;;;;;;4.70;99.90;;;;;;4992135;28;19922;-76
2022/01/13 00:51:14;;;;;;;;;;;4.60;99.90;;;;;;4969630;28;19926;-76
2022/01/13 00:53:40;;;;;;;;;;;4.70;99.90;;;;;;4956094;28;19928;-76
2022/01/13 00:56:06;;;;;;;;;;;4.60;99.90;;;;;;4956440;28;19933;-76
2022/01/13 00:58:33;;;;;;;;;;;4.70;99.90;;;;;;4991254;28;20005;-76
2022/01/13 01:01:01;;;;;;;;;;;4.60;99.90;;;;;;4975316;28;19929;-76
2022/01/13 01:03:27;;;;;;;;;;;4.60;99.90;;;;;;4966572;28;19940;-76
2022/01/13 01:05:53;;;;;;;;;;;4.60;99.90;;;;;;4956559;28;20333;-76
2022/01/13 01:08:19;;;;;;;;;;;4.60;99.90;;;;;;4988045;28;20305;-76
2022/01/13 01:10:47;;;;;;;;;;;4.60;99.90;;;;;;4976278;28;19921;-76
2022/01/13 01:13:16;;;;;;;;;;;4.60;99.90;;;;;;4975091;28;20413;-76
2022/01/13 01:15:45;;;;;;;;;;;4.60;99.90;;;;;;4974967;28;20297;-76
2022/01/13 01:18:30;;;;;;;;;;;4.70;99.90;;;;;;5006014;28;20344;-76
2022/01/13 01:23:41;;;;;;;;;;;4.60;99.90;;;;;;4992682;28;19946;-76
2022/01/13 01:26:26;;;;;;;;;;;4.70;99.90;;;;;;4980778;28;20001;-76
2022/01/13 01:29:19;;;;;;;;;;;4.70;99.90;;;;;;4991806;28;19952;-76
2022/01/13 01:31:40;;;;;;;;;;;4.70;99.90;;;;;;4991068;28;20367;-76
2022/01/13 01:36:32;;;;;;;;;;;4.70;99.90;;;;;;5010126;28;19925;-76
2022/01/13 01:38:59;;;;;;;;;;;4.70;99.90;;;;;;4988666;28;20041;-76
2022/01/13 01:41:25;;;;;;;;;;;4.70;99.90;;;;;;4971825;28;19922;-76
2022/01/13 01:43:52;;;;;;;;;;;4.70;99.90;;;;;;5004862;28;19944;-76
2022/01/13 01:46:17;;;;;;;;;;;4.70;99.90;;;;;;4971787;28;19929;-76
2022/01/13 01:48:43;;;;;;;;;;;4.70;99.90;;;;;;4972689;28;19925;-76
2022/01/13 01:51:08;;;;;;;;;;;4.70;99.90;;;;;;4972764;28;19930;-76
2022/01/13 01:53:34;;;;;;;;;;;4.70;99.90;;;;;;4986684;28;20346;-76
2022/01/13 01:55:59;;;;;;;;;;;4.70;99.90;;;;;;5011903;28;20382;-76
2022/01/13 01:58:26;;;;;;;;;;;4.70;99.90;;;;;;4994025;28;19921;-76
2022/01/13 02:00:54;;;;;;;;;;;4.60;99.90;;;;;;4989531;28;19921;-76
2022/01/13 02:03:19;;;;;;;;;;;4.70;99.90;;;;;;4992203;28;19976;-76
2022/01/13 02:05:46;;;;;;;;;;;4.70;99.90;;;;;;4965344;28;19922;-76
2022/01/13 02:08:12;;;;;;;;;;;4.70;99.90;;;;;;4971582;28;19922;-76
2022/01/13 02:10:37;;;;;;;;;;;4.70;99.90;;;;;;4970939;28;19976;-76
2022/01/13 02:13:07;;;;;;;;;;;4.70;99.90;;;;;;4971589;28;19926;-76
2022/01/13 02:15:35;;;;;;;;;;;4.70;99.90;;;;;;4975201;28;19923;-76
2022/01/13 02:18:01;;;;;;;;;;;4.70;99.90;;;;;;4977527;28;19930;-75
2022/01/13 02:20:40;;;;;;;;;;;4.70;99.90;;;;;;4995691;28;19948;-74
2022/01/13 02:23:05;;;;;;;;;;;4.70;99.90;;;;;;4977912;28;19922;-74
2022/01/13 02:25:31;;;;;;;;;;;4.70;99.90;;;;;;4978179;28;19922;-74
2022/01/13 02:27:56;;;;;;;;;;;4.60;99.90;;;;;;4978426;28;20318;-74
2022/01/13 02:30:25;;;;;;;;;;;4.60;99.90;;;;;;4975535;28;19926;-75
2022/01/13 02:32:50;;;;;;;;;;;4.60;99.90;;;;;;4974061;28;19921;-75
2022/01/13 02:35:16;;;;;;;;;;;4.60;99.90;;;;;;4978553;28;19926;-75
2022/01/13 02:37:42;;;;;;;;;;;4.60;99.90;;;;;;4973318;28;19949;-74
2022/01/13 02:40:08;;;;;;;;;;;4.60;99.90;;;;;;4970128;28;20263;-74
2022/01/13 02:42:33;;;;;;;;;;;4.60;99.90;;;;;;4983450;28;19940;-74
2022/01/13 02:45:03;;;;;;;;;;;4.60;99.90;;;;;;5013850;28;20602;-75
2022/01/13 02:50:08;;;;;;;;;;;4.60;99.90;;;;;;5001986;28;19922;-74
2022/01/13 02:52:34;;;;;;;;;;;4.60;99.90;;;;;;4998216;28;20275;-75
2022/01/13 02:55:00;;;;;;;;;;;4.60;99.90;;;;;;5014716;28;19929;-75
2022/01/13 02:57:25;;;;;;;;;;;4.60;99.90;;;;;;4997293;28;19945;-75
2022/01/13 02:59:51;;;;;;;;;;;4.60;99.90;;;;;;4982666;28;19928;-74
2022/01/13 03:02:16;;;;;;;;;;;4.50;99.90;;;;;;4999966;28;20033;-74
2022/01/13 03:04:46;;;;;;;;;;;4.50;99.90;;;;;;4997230;28;20378;-75
2022/01/13 03:07:11;;;;;;;;;;;4.50;99.90;;;;;;5013269;28;19932;-75
2022/01/13 03:09:37;;;;;;;;;;;4.50;99.90;;;;;;4985496;28;19921;-74
2022/01/13 03:12:03;;;;;;;;;;;4.50;99.90;;;;;;4977444;28;19922;-75
2022/01/13 03:14:28;;;;;;;;;;;4.50;99.90;;;;;;4984153;28;20345;-74
2022/01/13 03:16:54;;;;;;;;;;;4.60;99.90;;;;;;4996870;28;20433;-75
2022/01/13 03:19:20;;;;;;;;;;;4.50;99.90;;;;;;4988336;28;19922;-74
2022/01/13 03:21:46;;;;;;;;;;;4.40;99.90;;;;;;4977825;28;20365;-75
2022/01/13 03:24:12;;;;;;;;;;;4.50;99.90;;;;;;4996754;28;19961;-74
2022/01/13 03:26:37;;;;;;;;;;;4.50;99.90;;;;;;5006870;28;20452;-75
2022/01/13 03:31:37;;;;;;;;;;;4.50;99.90;;;;;;4974253;28;19957;-74
2022/01/13 03:34:03;;;;;;;;;;;4.50;99.90;;;;;;4994945;28;20369;-74
2022/01/13 03:36:44;;;;;;;;;;;4.50;99.90;;;;;;5150616;27;19915;-73
2022/01/13 03:39:11;;;;;;;;;;;4.50;99.90;;;;;;5111625;28;19920;-73
2022/01/13 03:41:38;;;;;;;;;;;4.40;99.90;;;;;;5146871;27;20274;-73
2022/01/13 03:44:06;;;;;;;;;;;4.40;99.90;;;;;;5111825;28;20306;-73
2022/01/13 03:46:36;;;;;;;;;;;4.40;99.90;;;;;;5111958;28;19924;-73
2022/01/13 03:49:02;;;;;;;;;;;4.40;99.90;;;;;;5112889;28;20366;-74
2022/01/13 03:51:47;;;;;;;;;;;4.50;99.90;;;;;;5114178;28;19969;-74
2022/01/13 03:54:33;;;;;;;;;;;4.40;99.90;;;;;;5113383;28;19920;-74
2022/01/13 03:57:17;;;;;;;;;;;4.40;99.90;;;;;;5148594;27;20400;-73
2022/01/13 03:59:54;;;;;;;;;;;4.40;99.90;;;;;;5111950;28;19923;-73
2022/01/13 04:02:19;;;;;;;;;;;4.40;99.90;;;;;;5111587;28;19959;-75
2022/01/13 04:04:46;;;;;;;;;;;4.40;99.90;;;;;;5111863;28;20412;-73
2022/01/13 04:07:13;;;;;;;;;;;4.40;99.90;;;;;;5111388;28;19968;-72
2022/01/13 04:09:38;;;;;;;;;;;4.40;99.90;;;;;;5111107;27;19920;-73
2022/01/13 04:12:06;;;;;;;;;;;4.40;99.90;;;;;;5111056;28;19968;-73
2022/01/13 04:14:42;;;;;;;;;;;4.40;99.90;;;;;;5111073;28;19928;-74
2022/01/13 04:17:12;;;;;;;;;;;4.40;99.90;;;;;;5111148;28;19985;-73
2022/01/13 04:19:38;;;;;;;;;;;4.40;99.90;;;;;;5111283;28;20014;-73
2022/01/13 04:22:04;;;;;;;;;;;4.40;99.90;;;;;;5110800;28;19919;-75
2022/01/13 04:24:30;;;;;;;;;;;4.40;99.90;;;;;;5111395;28;19972;-74
2022/01/13 04:26:57;;;;;;;;;;;4.40;99.90;;;;;;5111252;28;20386;-72
2022/01/13 04:29:36;;;;;;;;;;;4.40;99.90;;;;;;5145205;27;19920;-73
2022/01/13 04:32:02;;;;;;;;;;;4.40;99.90;;;;;;5111208;28;19919;-73
2022/01/13 04:34:28;;;;;;;;;;;4.40;99.90;;;;;;5127799;27;19920;-73
2022/01/13 04:37:00;;;;;;;;;;;4.40;99.90;;;;;;5111095;28;19919;-73
2022/01/13 04:39:26;;;;;;;;;;;4.40;99.90;;;;;;5111191;28;19961;-73
2022/01/13 04:41:53;;;;;;;;;;;4.40;99.90;;;;;;5110779;28;19919;-73
2022/01/13 04:44:20;;;;;;;;;;;4.40;99.90;;;;;;5110813;28;20278;-73
2022/01/13 04:46:46;;;;;;;;;;;4.40;99.90;;;;;;5104664;28;19927;-73
2022/01/13 04:49:12;;;;;;;;;;;4.40;99.90;;;;;;5096865;28;19994;-73
2022/01/13 04:51:38;;;;;;;;;;;4.40;99.90;;;;;;5097195;28;20024;-73
2022/01/13 04:54:04;;;;;;;;;;;4.40;99.90;;;;;;5097132;28;19919;-73
2022/01/13 04:56:38;;;;;;;;;;;4.40;99.90;;;;;;5097079;28;19924;-73
2022/01/13 04:59:04;;;;;;;;;;;4.30;99.90;;;;;;5096752;28;19942;-73
2022/01/13 05:01:30;;;;;;;;;;;4.30;99.90;;;;;;5096993;28;19920;-73
2022/01/13 05:03:56;;;;;;;;;;;4.30;99.90;;;;;;5096290;28;19940;-73
2022/01/13 05:06:21;;;;;;;;;;;4.30;99.90;;;;;;5097214;28;19926;-73
2022/01/13 05:08:47;;;;;;;;;;;4.30;99.90;;;;;;5096786;28;20358;-74
2022/01/13 05:11:13;;;;;;;;;;;4.30;99.90;;;;;;5096802;28;19947;-74
2022/01/13 05:13:39;;;;;;;;;;;4.30;99.90;;;;;;5096307;28;19959;-73
2022/01/13 05:16:05;;;;;;;;;;;4.20;99.90;;;;;;5096190;28;20268;-74
2022/01/13 05:18:47;;;;;;;;;;;4.20;99.90;;;;;;5096879;28;19927;-73
2022/01/13 05:21:37;;;;;;;;;;;4.20;99.90;;;;;;5097082;28;19965;-73
2022/01/13 05:24:03;;;;;;;;;;;4.20;99.90;;;;;;5096323;28;19927;-73
2022/01/13 05:26:28;;;;;;;;;;;4.20;99.90;;;;;;5096134;28;20002;-73
2022/01/13 05:28:53;;;;;;;;;;;4.20;99.90;;;;;;5096192;28;19928;-74
2022/01/13 05:31:19;;;;;;;;;;;4.20;99.90;;;;;;5096319;28;19926;-73
2022/01/13 05:33:45;;;;;;;;;;;4.20;99.90;;;;;;5095420;28;19919;-73
2022/01/13 05:36:12;;;;;;;;;;;4.20;99.90;;;;;;5095528;28;19938;-73
2022/01/13 05:38:40;;;;;;;;;;;4.20;99.90;;;;;;5096182;28;19924;-73
2022/01/13 05:41:05;;;;;;;;;;;4.30;99.90;;;;;;5095947;28;19931;-72
2022/01/13 05:43:31;;;;;;;;;;;4.20;99.90;;;;;;5095459;28;19920;-73
2022/01/13 05:45:56;;;;;;;;;;;4.20;99.90;;;;;;5095796;28;20043;-73
2022/01/13 05:48:22;;;;;;;;;;;4.20;99.90;;;;;;5096348;28;19919;-74
2022/01/13 05:50:48;;;;;;;;;;;4.20;99.90;;;;;;5130003;27;20323;-73
2022/01/13 05:53:13;;;;;;;;;;;4.20;99.90;;;;;;5095473;28;19920;-73
2022/01/13 05:55:39;;;;;;;;;;;4.20;99.90;;;;;;5095739;28;19949;-73
2022/01/13 05:58:05;;;;;;;;;;;4.20;99.90;;;;;;5128306;27;20136;-73
2022/01/13 06:00:31;;;;;;;;;;;4.20;99.90;;;;;;5095555;28;19919;-73
2022/01/13 06:02:57;;;;;;;;;;;4.20;99.90;;;;;;5095016;28;19967;-74
2022/01/13 06:05:22;;;;;;;;;;;4.10;99.90;;;;;;5095740;28;20352;-73
2022/01/13 06:07:48;;;;;;;;;;;4.20;99.90;;;;;;5095155;28;19980;-73
2022/01/13 06:10:18;;;;;;;;;;;4.20;99.90;;;;;;5095571;28;19973;-73
2022/01/13 06:12:45;;;;;;;;;;;4.20;99.90;;;;;;5095691;28;19920;-73
2022/01/13 06:15:12;;;;;;;;;;;4.20;99.90;;;;;;5095601;28;20010;-73
2022/01/13 06:17:38;;;;;;;;;;;4.10;99.90;;;;;;5094927;28;19920;-73
2022/01/13 06:20:04;;;;;;;;;;;4.20;99.90;;;;;;5095363;28;19919;-73
2022/01/13 06:22:30;;;;;;;;;;;4.20;99.90;;;;;;5095276;28;20441;-73
2022/01/13 06:24:55;;;;;;;;;;;4.20;99.90;;;;;;5095263;28;20026;-74
2022/01/13 06:27:22;;;;;;;;;;;4.10;99.90;;;;;;5094708;28;20347;-74
2022/01/13 06:29:49;;;;;;;;;;;4.10;99.90;;;;;;5129045;27;19941;-73
2022/01/13 06:32:14;;;;;;;;;;;4.20;99.90;;;;;;5094749;28;19920;-73
2022/01/13 06:34:40;;;;;;;;;;;4.20;99.90;;;;;;5094865;28;19928;-73
2022/01/13 06:37:05;;;;;;;;;;;4.20;99.90;;;;;;5091541;28;19971;-74
2022/01/13 06:39:31;;;;;;;;;;;4.20;99.90;;;;;;5074675;28;19927;-73
2022/01/13 06:41:56;;;;;;;;;;;4.20;99.90;;;;;;5075014;28;19920;-73
2022/01/13 06:44:22;;;;;;;;;;;4.10;99.90;;;;;;5079666;28;19920;-73
2022/01/13 06:46:47;;;;;;;;;;;4.20;99.90;;;;;;5094479;28;19969;-75
2022/01/13 06:49:13;;;;;;;;;;;4.20;99.90;;;;;;5094849;28;20016;-73
2022/01/13 06:51:41;;;;;;;;;;;4.20;99.90;;;;;;5095063;28;20107;-73
2022/01/13 06:54:07;;;;;;;;;;;4.20;99.90;;;;;;5094263;28;20002;-74
2022/01/13 06:56:32;;;;;;;;;;;4.20;99.90;;;;;;5094324;28;19940;-73
2022/01/13 06:58:58;;;;;;;;;;;4.10;99.90;;;;;;5094875;28;19920;-74
2022/01/13 07:01:24;;;;;;;;;;;4.20;99.90;;;;;;5094416;28;19920;-73
2022/01/13 07:03:49;;;;;;;;;;;4.20;99.90;;;;;;5094609;28;19920;-73
2022/01/13 07:06:15;;;;;;;;;;;4.10;99.90;;;;;;5094515;28;19998;-73
2022/01/13 07:08:40;;;;;;;;;;;4.20;99.90;;;;;;5093960;28;19920;-73
2022/01/13 07:11:06;;;;;;;;;;;4.20;99.90;;;;;;5094782;28;19924;-75
2022/01/13 07:13:32;;;;;;;;;;;4.20;99.90;;;;;;5094015;28;19999;-73
2022/01/13 07:16:01;;;;;;;;;;;4.20;99.90;;;;;;5094489;28;19928;-73
2022/01/13 07:18:30;;;;;;;;;;;4.20;99.90;;;;;;5093786;28;19924;-74
2022/01/13 07:20:56;;;;;;;;;;;4.20;99.90;;;;;;5094378;28;19928;-73
2022/01/13 07:23:22;;;;;;;;;;;4.20;99.90;;;;;;5094037;28;19942;-73
2022/01/13 07:25:48;;;;;;;;;;;4.20;99.90;;;;;;5094694;28;19926;-73
2022/01/13 07:28:13;;;;;;;;;;;4.20;99.90;;;;;;5080998;28;19924;-75
2022/01/13 07:31:00;;;;;;;;;;;4.20;99.90;;;;;;5137134;27;19924;-76
2022/01/13 07:33:30;;;;;;;;;;;4.20;99.90;;;;;;5080747;28;19924;-74
2022/01/13 07:35:56;;;;;;;;;;;4.20;99.90;;;;;;5127903;27;19935;-77
2022/01/13 07:38:22;;;;;;;;;;;4.20;99.90;;;;;;5093423;28;20029;-76
2022/01/13 07:40:48;;;;;;;;;;;4.20;99.90;;;;;;5093656;28;19967;-77
2022/01/13 07:43:22;;;;;;;;;;;4.20;99.90;;;;;;5093478;28;19920;-77
2022/01/13 07:45:54;;;;;;;;;;;4.20;99.90;;;;;;5092229;28;19924;-76
2022/01/13 07:48:24;;;;;;;;;;;4.20;99.90;;;;;;5094002;28;19919;-74
2022/01/13 07:50:53;;;;;;;;;;;4.20;99.90;;;;;;5111654;28;19919;-75
2022/01/13 07:53:19;;;;;;;;;;;4.20;99.90;;;;;;5093768;28;19927;-77
2022/01/13 07:55:45;;;;;;;;;;;4.20;99.90;;;;;;5094095;28;20011;-76
2022/01/13 07:58:10;;;;;;;;;;;4.20;99.90;;;;;;5094079;28;20402;-76
2022/01/13 08:00:37;;;;;;;;;;;4.20;99.90;;;;;;5093778;28;20378;-76
2022/01/13 08:03:02;;;;;;;;;;;4.20;99.90;;;;;;5093662;28;19920;-76
2022/01/13 08:05:28;;;;;;;;;;;4.20;99.90;;;;;;5094192;28;20385;-76
2022/01/13 08:07:54;;;;;;;;;;;4.20;99.90;;;;;;5094062;28;19981;-76
2022/01/13 08:10:20;;;;;;;;;;;4.30;99.90;;;;;;5128193;27;19926;-76
2022/01/13 08:12:49;;;;;;;;;;;4.30;99.90;;;;;;5094432;28;19920;-76
2022/01/13 08:15:15;;;;;;;;;;;4.30;99.90;;;;;;5093889;28;19924;-76
2022/01/13 08:20:42;;;;;;;;;;;4.30;99.90;;;;;;5110981;28;19920;-76
2022/01/13 08:23:14;;;;;;;;;;;4.40;99.90;;;;;;5090675;28;20032;-76
2022/01/13 08:25:49;;;;;;;;;;;4.30;99.90;;;;;;5097093;28;19927;-77
2022/01/13 08:28:18;;;;;;;;;;;4.40;99.90;;;;;;5096835;28;19924;-77
2022/01/13 08:30:49;;;;;;;;;;;4.30;99.90;;;;;;5097830;28;19919;-77
2022/01/13 08:33:24;;;;;;;;;;;4.40;99.90;;;;;;5096480;28;19920;-76
2022/01/13 08:35:53;;;;;;;;;;;4.40;99.90;;;;;;5097833;28;19924;-77
2022/01/13 08:38:25;;;;;;;;;;;4.40;99.90;;;;;;5097280;28;19926;-77
2022/01/13 08:40:56;;;;;;;;;;;4.40;99.90;;;;;;5098038;28;20374;-77
2022/01/13 08:43:36;;;;;;;;;;;4.40;99.90;;;;;;5096805;28;19994;-77
2022/01/13 08:46:03;;;;;;;;;;;4.50;99.90;;;;;;5097089;28;19926;-77
2022/01/13 08:48:44;;;;;;;;;;;4.50;99.90;;;;;;5097947;28;20046;-77
2022/01/13 08:51:09;;;;;;;;;;;4.40;99.90;;;;;;5097855;28;19972;-77
2022/01/13 08:53:43;;;;;;;;;;;4.50;99.90;;;;;;5096443;28;19974;-77
2022/01/13 08:56:15;;;;;;;;;;;4.50;99.90;;;;;;5097636;28;20294;-76
2022/01/13 08:58:48;;;;;;;;;;;4.50;99.90;;;;;;5096867;28;20141;-79
2022/01/13 09:01:20;;;;;;;;;;;4.50;99.90;;;;;;5098231;28;20008;-77
2022/01/13 09:03:46;;;;;;;;;;;4.60;99.90;;;;;;5085230;28;19997;-77
2022/01/13 09:06:15;;;;;;;;;;;4.60;99.90;;;;;;5097132;28;19934;-77
2022/01/13 09:08:40;;;;;;;;;;;4.60;99.90;;;;;;5130620;27;19920;-77
2022/01/13 09:11:23;;;;;;;;;;;4.60;99.90;;;;;;5097650;28;20014;-77
2022/01/13 09:13:57;;;;;;;;;;;4.60;99.90;;;;;;5095923;28;19920;-77
2022/01/13 09:16:41;;;;;;;;;;;4.60;99.90;;;;;;5131990;27;19923;-78
2022/01/13 09:19:08;;;;;;;;;;;4.70;99.90;;;;;;5098551;28;19999;-78
2022/01/13 09:21:34;;;;;;;;;;;4.70;99.90;;;;;;5133180;27;19920;-78
2022/01/13 09:23:59;;;;;;;;;;;4.80;99.90;;;;;;5132113;27;19927;-78
2022/01/13 09:26:25;;;;;;;;;;;4.70;99.90;;;;;;5096850;28;19923;-78
2022/01/13 09:28:53;;;;;;;;;;;4.70;99.90;;;;;;5132405;27;19919;-78
2022/01/13 09:31:18;;;;;;;;;;;4.70;99.90;;;;;;5098767;28;19926;-78
2022/01/13 09:33:47;;;;;;;;;;;4.80;99.90;;;;;;5132154;27;19920;-78
2022/01/13 09:36:12;;;;;;;;;;;4.80;99.90;;;;;;5097449;28;19924;-78
2022/01/13 09:38:38;;;;;;;;;;;4.80;99.90;;;;;;5097183;28;20290;-77
2022/01/13 09:41:03;;;;;;;;;;;4.80;99.90;;;;;;5130538;27;19920;-78
2022/01/13 09:43:29;;;;;;;;;;;4.90;99.90;;;;;;5097032;28;19920;-78
2022/01/13 09:45:55;;;;;;;;;;;4.90;99.90;;;;;;5097856;28;19927;-78
2022/01/13 09:48:21;;;;;;;;;;;4.90;99.90;;;;;;5097019;28;20381;-78
2022/01/13 09:50:48;;;;;;;;;;;4.90;99.90;;;;;;5098996;28;19927;-77
2022/01/13 09:53:15;;;;;;;;;;;4.90;99.90;;;;;;5096833;28;19965;-78
2022/01/13 09:55:49;;;;;;;;;;;4.90;99.90;;;;;;5097887;28;19928;-77
2022/01/13 09:58:17;;;;;;;;;;;4.90;99.90;;;;;;5096851;28;20351;-77
2022/01/13 10:00:44;;;;;;;;;;;4.90;99.90;;;;;;5097645;28;19966;-77
2022/01/13 10:03:22;;;;;;;;;;;4.90;99.90;;;;;;5129974;27;19984;-77
2022/01/13 10:05:54;;;;;;;;;;;5.00;99.90;;;;;;5123020;27;19927;-78
2022/01/13 10:08:20;;;;;;;;;;;5.00;99.90;;;;;;5093275;28;19919;-78
2022/01/13 10:10:48;;;;;;;;;;;5.00;99.90;;;;;;5096410;28;19923;-77
2022/01/13 10:13:29;;;;;;;;;;;5.10;99.90;;;;;;5096206;28;19919;-76
2022/01/13 10:18:39;;;;;;;;;;;5.10;99.90;;;;;;5111908;28;19919;-75
2022/01/13 10:21:05;;;;;;;;;;;5.10;99.90;;;;;;5086318;28;19926;-76
2022/01/13 10:23:31;;;;;;;;;;;5.10;99.90;;;;;;5129371;27;19920;-76
2022/01/13 10:26:10;;;;;;;;;;;5.10;99.90;;;;;;5112535;28;19919;-76
2022/01/13 10:28:35;;;;;;;;;;;5.10;99.90;;;;;;5115470;27;19943;-75
2022/01/13 10:31:01;;;;;;;;;;;5.20;99.90;;;;;;5085798;28;19923;-76
2022/01/13 10:33:27;;;;;;;;;;;5.20;99.90;;;;;;5109080;28;20431;-75
2022/01/13 10:35:54;;;;;;;;;;;5.20;99.90;;;;;;5077046;28;19924;-75
2022/01/13 10:38:21;;;;;;;;;;;5.20;99.90;;;;;;5112525;28;19919;-76
2022/01/13 10:40:48;;;;;;;;;;;5.20;99.90;;;;;;5094841;28;19919;-76
2022/01/13 10:43:21;;;;;;;;;;;5.30;99.90;;;;;;5129403;27;20278;-76
2022/01/13 10:45:48;;;;;;;;;;;5.30;99.90;;;;;;5094887;28;19920;-76
2022/01/13 10:48:13;;;;;;;;;;;5.30;99.90;;;;;;5112795;28;19967;-76
2022/01/13 10:50:45;;;;;;;;;;;5.30;99.90;;;;;;5095540;28;20588;-75
2022/01/13 10:53:15;;;;;;;;;;;5.30;99.90;;;;;;5094014;28;20076;-76
2022/01/13 10:55:42;;;;;;;;;;;5.30;99.90;;;;;;5091896;28;19946;-75
2022/01/13 10:58:08;;;;;;;;;;;5.30;99.90;;;;;;5108914;28;20421;-75
2022/01/13 11:00:34;;;;;;;;;;;5.30;99.90;;;;;;5138577;27;19920;-75
2022/01/13 11:03:00;;;;;;;;;;;5.30;99.90;;;;;;5094389;28;19920;-74
2022/01/13 11:05:26;;;;;;;;;;;5.40;99.90;;;;;;5093751;28;19930;-75
2022/01/13 11:07:51;;;;;;;;;;;5.40;99.90;;;;;;5128329;27;20028;-75
2022/01/13 11:10:18;;;;;;;;;;;5.40;99.90;;;;;;5094485;28;19928;-74
2022/01/13 11:12:44;;;;;;;;;;;5.40;99.90;;;;;;5094926;28;20014;-75
2022/01/13 11:15:17;;;;;;;;;;;5.40;99.90;;;;;;5110889;28;19924;-75
2022/01/13 11:17:45;;;;;;;;;;;5.40;99.90;;;;;;5111388;28;19919;-75
2022/01/13 11:20:15;;;;;;;;;;;5.40;99.90;;;;;;5103780;28;20283;-75
2022/01/13 11:22:42;;;;;;;;;;;5.40;99.90;;;;;;5093963;28;20354;-75
2022/01/13 11:25:09;;;;;;;;;;;5.40;99.90;;;;;;5094637;28;19920;-76
2022/01/13 11:27:34;;;;;;;;;;;5.40;99.90;;;;;;5128080;27;19928;-77
2022/01/13 11:30:01;;;;;;;;;;;5.40;99.90;;;;;;5128341;27;19920;-77
2022/01/13 11:32:26;;;;;;;;;;;5.50;99.90;;;;;;5094299;28;19926;-77
2022/01/13 11:34:53;;;;;;;;;;;5.50;99.90;;;;;;5093264;28;19928;-77
2022/01/13 11:37:19;;;;;;;;;;;5.50;99.90;;;;;;5094051;28;20039;-77
2022/01/13 11:39:45;;;;;;;;;;;5.50;99.90;;;;;;5128585;27;20475;-77
2022/01/13 11:42:16;;;;;;;;;;;5.50;99.90;;;;;;5094444;28;20300;-76
2022/01/13 11:44:41;;;;;;;;;;;5.50;99.90;;;;;;5110322;28;19924;-75
2022/01/13 11:47:22;;;;;;;;;;;5.50;99.90;;;;;;5096033;28;19920;-75
2022/01/13 11:50:04;;;;;;;;;;;5.50;99.90;;;;;;5090435;28;19920;-75
2022/01/13 11:52:41;;;;;;;;;;;5.50;99.90;;;;;;5111607;28;19972;-75
2022/01/13 11:55:20;;;;;;;;;;;5.50;99.90;;;;;;5127734;27;19932;-75
2022/01/13 11:57:46;;;;;;;;;;;5.50;99.90;;;;;;5113705;28;19924;-75
2022/01/13 12:00:22;;;;;;;;;;;5.40;99.90;;;;;;5132059;27;19928;-75
2022/01/13 12:02:48;;;;;;;;;;;5.40;99.90;;;;;;5131992;27;19919;-75
2022/01/13 12:05:16;;;;;;;;;;;5.50;99.90;;;;;;5097701;28;19927;-75
2022/01/13 12:07:43;;;;;;;;;;;5.50;99.90;;;;;;5097983;28;19920;-75
2022/01/13 12:10:10;;;;;;;;;;;5.50;99.90;;;;;;5131973;27;19920;-75
2022/01/13 12:12:37;;;;;;;;;;;5.50;99.90;;;;;;5131872;27;19985;-75
2022/01/13 12:15:19;;;;;;;;;;;5.50;99.90;;;;;;5096381;28;19924;-77
2022/01/13 12:17:58;;;;;;;;;;;5.50;99.90;;;;;;5085320;28;19924;-76
2022/01/13 12:20:27;;;;;;;;;;;5.50;99.90;;;;;;5087683;28;19927;-75
2022/01/13 12:23:05;;;;;;;;;;;5.50;99.90;;;;;;5097594;28;19926;-75
2022/01/13 12:25:31;;;;;;;;;;;5.50;99.90;;;;;;5092670;28;19920;-75
2022/01/13 12:27:59;;;;;;;;;;;5.60;99.90;;;;;;5097414;28;19919;-75
2022/01/13 12:30:27;;;;;;;;;;;5.60;99.90;;;;;;5106222;28;19920;-75
2022/01/13 12:32:56;;;;;;;;;;;5.60;99.90;;;;;;5077290;28;20356;-75
2022/01/13 12:35:22;;;;;;;;;;;5.60;99.90;;;;;;5126585;27;19923;-75
2022/01/13 12:38:04;;;;;;;;;;;5.60;99.90;;;;;;5094790;28;19919;-75
2022/01/13 12:40:33;;;;;;;;;;;5.60;99.90;;;;;;5097112;28;20013;-76
2022/01/13 12:43:11;;;;;;;;;;;5.70;99.90;;;;;;5096073;28;19920;-76
2022/01/13 12:45:37;;;;;;;;;;;5.60;99.90;;;;;;5114346;28;19943;-77
2022/01/13 12:48:07;;;;;;;;;;;5.60;99.90;;;;;;5130698;27;20390;-75
2022/01/13 12:50:38;;;;;;;;;;;5.70;99.90;;;;;;5095939;28;19927;-76
2022/01/13 12:53:17;;;;;;;;;;;5.70;99.90;;;;;;5102251;28;19927;-75
2022/01/13 12:55:44;;;;;;;;;;;5.70;99.90;;;;;;5081179;28;20305;-76
2022/01/13 12:58:10;;;;;;;;;;;5.70;99.90;;;;;;5095330;28;20341;-75
2022/01/13 13:00:36;;;;;;;;;;;5.70;99.90;;;;;;5099677;28;20007;-75
2022/01/13 13:03:06;;;;;;;;;;;5.80;99.90;;;;;;5095129;28;19927;-75
2022/01/13 13:05:43;;;;;;;;;;;5.70;99.90;;;;;;5113601;28;19923;-75
2022/01/13 13:08:19;;;;;;;;;;;5.80;99.90;;;;;;5140352;27;20305;-75
2022/01/13 13:10:47;;;;;;;;;;;5.80;99.90;;;;;;5125519;27;19927;-75
2022/01/13 13:13:14;;;;;;;;;;;5.80;99.90;;;;;;5097072;28;19919;-75
2022/01/13 13:15:40;;;;;;;;;;;5.80;99.90;;;;;;5096171;28;19928;-76
2022/01/13 13:18:06;;;;;;;;;;;5.90;99.90;;;;;;5130659;27;19928;-75
2022/01/13 13:20:33;;;;;;;;;;;5.90;99.90;;;;;;5092942;28;19953;-75
2022/01/13 13:23:00;;;;;;;;;;;5.90;99.90;;;;;;5113784;28;19920;-76
2022/01/13 13:25:32;;;;;;;;;;;5.90;99.90;;;;;;5097210;28;19938;-76
2022/01/13 13:28:18;;;;;;;;;;;6.00;99.90;;;;;;5114260;28;19919;-76
2022/01/13 13:30:48;;;;;;;;;;;5.90;99.90;;;;;;5102645;28;20411;-75
2022/01/13 13:33:14;;;;;;;;;;;6.00;99.90;;;;;;5113325;28;20031;-76
2022/01/13 13:35:39;;;;;;;;;;;6.00;99.90;;;;;;5095645;28;20190;-76
2022/01/13 13:38:09;;;;;;;;;;;6.10;99.90;;;;;;5096115;28;19924;-76
2022/01/13 13:40:40;;;;;;;;;;;6.00;99.90;;;;;;5112825;28;20391;-76
2022/01/13 13:43:06;;;;;;;;;;;6.10;99.90;;;;;;5112739;28;20282;-76
2022/01/13 13:45:32;;;;;;;;;;;6.10;99.90;;;;;;5113203;28;20026;-76
2022/01/13 13:47:58;;;;;;;;;;;6.10;99.90;;;;;;5096271;28;20233;-76
2022/01/13 13:50:24;;;;;;;;;;;6.20;99.90;;;;;;5095466;28;20397;-76
2022/01/13 13:53:08;;;;;;;;;;;6.20;99.90;;;;;;5112201;28;19926;-76
2022/01/13 13:55:35;;;;;;;;;;;6.20;99.90;;;;;;5113048;28;19924;-76
2022/01/13 13:58:00;;;;;;;;;;;6.20;99.90;;;;;;5112766;28;19967;-76
2022/01/13 14:00:26;;;;;;;;;;;6.30;99.90;;;;;;5129401;27;19967;-76
2022/01/13 14:02:53;;;;;;;;;;;6.20;99.90;;;;;;5095362;28;19920;-76
2022/01/13 14:05:26;;;;;;;;;;;6.30;99.90;;;;;;5095506;28;19920;-76
2022/01/13 14:07:52;;;;;;;;;;;6.40;99.90;;;;;;5112906;28;19919;-76
2022/01/13 14:10:20;;;;;;;;;;;6.30;99.90;;;;;;5095509;28;20437;-76
2022/01/13 14:12:56;;;;;;;;;;;6.20;99.90;;;;;;5111745;28;20519;-76
2022/01/13 14:15:22;;;;;;;;;;;6.30;99.90;;;;;;5112418;28;20462;-76
2022/01/13 14:18:08;;;;;;;;;;;6.30;99.90;;;;;;5112084;28;19973;-76
2022/01/13 14:20:40;;;;;;;;;;;6.30;99.90;;;;;;5103517;28;19920;-77
2022/01/13 14:23:09;;;;;;;;;;;6.30;99.90;;;;;;5095112;28;19924;-76
2022/01/13 14:25:36;;;;;;;;;;;6.40;99.90;;;;;;5095334;28;19988;-77
2022/01/13 14:28:03;;;;;;;;;;;6.30;99.90;;;;;;5094568;28;20400;-77
2022/01/13 14:30:31;;;;;;;;;;;6.30;99.90;;;;;;5095190;28;19932;-77
2022/01/13 14:33:11;;;;;;;;;;;6.30;99.90;;;;;;5113133;28;19924;-77
2022/01/13 14:35:37;;;;;;;;;;;6.30;99.90;;;;;;5094861;28;19923;-77
2022/01/13 14:38:08;;;;;;;;;;;6.30;99.90;;;;;;5111486;28;19926;-77
2022/01/13 14:40:41;;;;;;;;;;;6.30;99.90;;;;;;5095007;28;19920;-77
2022/01/13 14:43:07;;;;;;;;;;;6.30;99.90;;;;;;5094578;28;19924;-77
2022/01/13 14:45:33;;;;;;;;;;;6.30;99.90;;;;;;5095363;28;20010;-76
2022/01/13 14:47:58;;;;;;;;;;;6.30;99.90;;;;;;5111664;28;19966;-76
2022/01/13 14:50:24;;;;;;;;;;;6.30;99.90;;;;;;5113452;28;19919;-76
2022/01/13 14:52:50;;;;;;;;;;;6.20;99.90;;;;;;5094947;28;19920;-77
2022/01/13 14:55:18;;;;;;;;;;;6.20;99.90;;;;;;5095888;28;19927;-76
2022/01/13 14:57:44;;;;;;;;;;;6.20;99.90;;;;;;5096118;28;19963;-77